Time;durP1;ratioP1;P1;durP2;ratioP2;P2;SDS_P1;SDS_P2;PMS_P1;PMS_P2;Temp;Humidity;BMP_temperature;BMP_pressure;BME280_temperature;BME280_humidity;BME280_pressure;Samples;Min_cycle;Max_cycle;Signal;HPM_P1;HPM_P2
2022/06/10 00:00:03;;;;;;;2.03;0.93;;;;;;;;;;4921051;28;88542;-70
2022/06/10 00:02:31;;;;;;;1.27;0.70;;;;;;;;;;4920998;28;89569;-70
2022/06/10 00:05:01;;;;;;;1.87;0.60;;;;;;;;;;4921459;28;92512;-70
2022/06/10 00:07:34;;;;;;;2.70;0.80;;;;;;;;;;4907889;28;90297;-71
2022/06/10 00:10:02;;;;;;;0.67;0.60;;;;;;;;;;4908040;28;88288;-70
2022/06/10 00:12:31;;;;;;;3.23;0.57;;;;;;;;;;4921709;28;89460;-70
2022/06/10 00:14:59;;;;;;;2.37;0.60;;;;;;;;;;4921134;28;89005;-71
2022/06/10 00:17:28;;;;;;;1.27;0.60;;;;;;;;;;4920768;28;88378;-70
2022/06/10 00:19:57;;;;;;;0.70;0.70;;;;;;;;;;4921476;28;88895;-70
2022/06/10 00:22:27;;;;;;;2.00;0.70;;;;;;;;;;4920842;28;90829;-70
2022/06/10 00:24:55;;;;;;;1.00;0.97;;;;;;;;;;4920300;28;89192;-69
2022/06/10 00:27:25;;;;;;;2.27;0.70;;;;;;;;;;4921535;28;89637;-70
2022/06/10 00:29:53;;;;;;;1.37;0.60;;;;;;;;;;4921630;28;88279;-71
2022/06/10 00:32:22;;;;;;;0.70;0.40;;;;;;;;;;4921255;28;88283;-70
2022/06/10 00:34:51;;;;;;;1.13;0.57;;;;;;;;;;4920067;28;88567;-71
2022/06/10 00:37:19;;;;;;;2.43;0.60;;;;;;;;;;4921044;28;88306;-70
2022/06/10 00:39:49;;;;;;;2.10;0.63;;;;;;;;;;4921837;28;88737;-71
2022/06/10 00:42:18;;;;;;;3.73;0.70;;;;;;;;;;4920905;28;90230;-69
2022/06/10 00:44:47;;;;;;;2.73;0.60;;;;;;;;;;4922947;28;90055;-70
2022/06/10 00:47:16;;;;;;;2.63;0.57;;;;;;;;;;4933787;28;88638;-70
2022/06/10 00:49:45;;;;;;;1.27;0.90;;;;;;;;;;4943493;28;88680;-70
2022/06/10 00:52:15;;;;;;;0.50;0.43;;;;;;;;;;4935858;28;91731;-70
2022/06/10 00:54:45;;;;;;;1.60;0.50;;;;;;;;;;4940529;28;89341;-70
2022/06/10 00:57:16;;;;;;;0.53;0.53;;;;;;;;;;4943980;28;89623;-70
2022/06/10 00:59:45;;;;;;;1.30;0.80;;;;;;;;;;4943777;28;88585;-70
2022/06/10 01:02:15;;;;;;;3.40;0.70;;;;;;;;;;4944021;28;89282;-70
2022/06/10 01:04:44;;;;;;;2.30;0.67;;;;;;;;;;4928507;28;89987;-70
2022/06/10 01:07:12;;;;;;;2.57;0.80;;;;;;;;;;4924766;28;88275;-70
2022/06/10 01:09:41;;;;;;;2.13;0.80;;;;;;;;;;4924479;28;88567;-70
2022/06/10 01:12:17;;;;;;;0.50;0.40;;;;;;;;;;4923925;28;90735;-70
2022/06/10 01:14:48;;;;;;;1.27;0.80;;;;;;;;;;4923830;28;89057;-70
2022/06/10 01:17:20;;;;;;;1.27;0.70;;;;;;;;;;4923807;28;91259;-69
2022/06/10 01:20:07;;;;;;;1.87;0.67;;;;;;;;;;4923947;28;88517;-71
2022/06/10 01:22:50;;;;;;;1.53;0.70;;;;;;;;;;4923932;28;92251;-70
2022/06/10 01:25:26;;;;;;;0.63;0.57;;;;;;;;;;4923858;28;90092;-70
2022/06/10 01:27:59;;;;;;;0.60;0.60;;;;;;;;;;4924037;28;89012;-70
2022/06/10 01:30:51;;;;;;;1.50;0.87;;;;;;;;;;4923597;28;88528;-71
2022/06/10 01:33:27;;;;;;;2.20;0.80;;;;;;;;;;4923497;28;89996;-70
2022/06/10 01:35:58;;;;;;;1.50;0.87;;;;;;;;;;4923369;28;89322;-71
2022/06/10 01:38:27;;;;;;;1.23;0.87;;;;;;;;;;4923102;28;89080;-70
2022/06/10 01:40:57;;;;;;;0.70;0.70;;;;;;;;;;4923759;28;88523;-70
2022/06/10 01:43:28;;;;;;;0.80;0.70;;;;;;;;;;4923470;28;90431;-70
2022/06/10 01:45:59;;;;;;;3.03;0.97;;;;;;;;;;4923779;28;88773;-70
2022/06/10 01:48:31;;;;;;;2.43;0.70;;;;;;;;;;4922527;28;88611;-71
2022/06/10 01:51:01;;;;;;;1.67;1.10;;;;;;;;;;4923010;28;88634;-70
2022/06/10 01:53:31;;;;;;;1.33;0.70;;;;;;;;;;4923637;28;89312;-70
2022/06/10 01:56:01;;;;;;;0.80;0.70;;;;;;;;;;4922331;28;88993;-71
2022/06/10 01:58:31;;;;;;;3.07;0.60;;;;;;;;;;4923357;28;88612;-69
2022/06/10 02:01:02;;;;;;;0.77;0.73;;;;;;;;;;4923264;28;88590;-70
2022/06/10 02:03:32;;;;;;;2.13;0.90;;;;;;;;;;4922837;28;89905;-70
2022/06/10 02:06:01;;;;;;;1.07;0.80;;;;;;;;;;4922486;28;89179;-70
2022/06/10 02:08:30;;;;;;;2.13;0.90;;;;;;;;;;4923484;28;90868;-70
2022/06/10 02:11:01;;;;;;;3.13;1.10;;;;;;;;;;4923043;28;88420;-70
2022/06/10 02:13:30;;;;;;;2.07;0.57;;;;;;;;;;4922824;28;91900;-70
2022/06/10 02:16:00;;;;;;;1.27;0.70;;;;;;;;;;4922841;28;88859;-70
2022/06/10 02:18:30;;;;;;;0.50;0.50;;;;;;;;;;4926513;28;88235;-70
2022/06/10 02:21:02;;;;;;;2.83;0.73;;;;;;;;;;4942053;28;88326;-70
2022/06/10 02:23:31;;;;;;;2.93;0.80;;;;;;;;;;4938311;28;89549;-69
2022/06/10 02:26:00;;;;;;;1.90;1.13;;;;;;;;;;4922440;28;91068;-71
2022/06/10 02:28:29;;;;;;;0.90;0.80;;;;;;;;;;4922476;28;90481;-70
2022/06/10 02:30:58;;;;;;;2.53;1.10;;;;;;;;;;4923140;28;88556;-70
2022/06/10 02:33:27;;;;;;;0.90;0.60;;;;;;;;;;4922844;28;90504;-70
2022/06/10 02:35:57;;;;;;;3.97;0.90;;;;;;;;;;4922548;28;89119;-69
2022/06/10 02:38:28;;;;;;;1.60;0.70;;;;;;;;;;4923010;28;88397;-69
2022/06/10 02:40:59;;;;;;;1.17;0.70;;;;;;;;;;4922773;28;88347;-70
2022/06/10 02:43:29;;;;;;;2.70;0.87;;;;;;;;;;4922557;28;89863;-70
2022/06/10 02:45:58;;;;;;;0.70;0.70;;;;;;;;;;4921646;28;88990;-70
2022/06/10 02:48:30;;;;;;;2.40;0.90;;;;;;;;;;4922011;28;88377;-70
2022/06/10 02:50:58;;;;;;;1.77;0.80;;;;;;;;;;4922523;28;88647;-70
2022/06/10 02:53:29;;;;;;;2.80;0.97;;;;;;;;;;4922476;28;89799;-70
2022/06/10 02:55:57;;;;;;;0.57;0.53;;;;;;;;;;4922579;28;89543;-77
2022/06/10 03:01:16;;;;;;;1.80;0.83;;;;;;;;;;4921930;28;88539;-76
2022/06/10 03:03:53;;;;;;;1.90;0.77;;;;;;;;;;4921812;28;92205;-78
2022/06/10 03:06:22;;;;;;;2.17;0.70;;;;;;;;;;4919106;28;88582;-76
2022/06/10 03:08:57;;;;;;;1.70;1.13;;;;;;;;;;4921436;28;88579;-76
2022/06/10 03:11:30;;;;;;;1.73;0.80;;;;;;;;;;4921787;28;88487;-76
2022/06/10 03:14:05;;;;;;;1.20;1.00;;;;;;;;;;4922142;28;90282;-76
2022/06/10 03:16:37;;;;;;;0.67;0.67;;;;;;;;;;4904993;28;89484;-76
2022/06/10 03:19:09;;;;;;;2.10;1.00;;;;;;;;;;4915592;28;89877;-75
2022/06/10 03:21:41;;;;;;;1.27;0.70;;;;;;;;;;4920669;28;88586;-77
2022/06/10 03:24:13;;;;;;;2.10;1.17;;;;;;;;;;4917306;28;89911;-76
2022/06/10 03:26:42;;;;;;;1.37;1.10;;;;;;;;;;4920933;28;88877;-76
2022/06/10 03:29:14;;;;;;;2.03;1.00;;;;;;;;;;4920736;28;88562;-76
2022/06/10 03:31:43;;;;;;;1.10;1.00;;;;;;;;;;4921914;28;88409;-77
2022/06/10 03:34:14;;;;;;;2.63;1.30;;;;;;;;;;4918831;28;91177;-70
2022/06/10 03:36:43;;;;;;;4.73;1.50;;;;;;;;;;4918426;28;89079;-70
2022/06/10 03:39:13;;;;;;;2.77;1.33;;;;;;;;;;4918752;28;88389;-71
2022/06/10 03:41:42;;;;;;;3.27;1.53;;;;;;;;;;4921196;28;89028;-69
2022/06/10 03:44:12;;;;;;;2.13;1.50;;;;;;;;;;4920812;28;89894;-70
2022/06/10 03:46:40;;;;;;;4.27;2.17;;;;;;;;;;4920606;28;88987;-70
2022/06/10 03:49:10;;;;;;;3.93;1.67;;;;;;;;;;4921247;28;88544;-70
2022/06/10 03:51:39;;;;;;;4.97;2.40;;;;;;;;;;4921553;28;88503;-70
2022/06/10 03:54:07;;;;;;;4.70;2.30;;;;;;;;;;4921638;28;89434;-71
2022/06/10 03:56:37;;;;;;;4.07;1.97;;;;;;;;;;4921216;28;89360;-70
2022/06/10 03:59:06;;;;;;;5.20;2.57;;;;;;;;;;4920407;28;88562;-70
2022/06/10 04:01:34;;;;;;;5.87;2.50;;;;;;;;;;4921405;28;88917;-70
2022/06/10 04:04:03;;;;;;;6.50;2.80;;;;;;;;;;4921201;28;90755;-69
2022/06/10 04:06:31;;;;;;;4.53;2.40;;;;;;;;;;4921631;28;88890;-70
2022/06/10 04:09:20;;;;;;;3.90;2.47;;;;;;;;;;4921388;28;88610;-69
2022/06/10 04:11:50;;;;;;;6.00;2.93;;;;;;;;;;4921491;28;88680;-70
2022/06/10 04:14:19;;;;;;;3.73;2.27;;;;;;;;;;4921677;28;89300;-70
2022/06/10 04:16:47;;;;;;;4.50;2.63;;;;;;;;;;4920910;28;88448;-69
2022/06/10 04:19:16;;;;;;;4.60;2.60;;;;;;;;;;4940489;28;88888;-70
2022/06/10 04:21:45;;;;;;;6.40;2.97;;;;;;;;;;4944081;28;88609;-69
2022/06/10 04:24:13;;;;;;;4.63;2.47;;;;;;;;;;4944084;28;89524;-69
2022/06/10 04:26:42;;;;;;;4.23;2.70;;;;;;;;;;4944312;28;88791;-70
2022/06/10 04:29:11;;;;;;;4.43;2.83;;;;;;;;;;4942975;28;88544;-70
2022/06/10 04:31:40;;;;;;;3.67;2.23;;;;;;;;;;4937728;28;88485;-70
2022/06/10 04:34:09;;;;;;;4.10;2.90;;;;;;;;;;4932674;28;90614;-71
2022/06/10 04:36:37;;;;;;;3.47;2.60;;;;;;;;;;4943981;28;88826;-69
2022/06/10 04:39:05;;;;;;;4.27;2.30;;;;;;;;;;4943446;28;88674;-70
2022/06/10 04:41:34;;;;;;;4.47;2.67;;;;;;;;;;4944339;28;88432;-70
2022/06/10 04:44:03;;;;;;;2.90;2.47;;;;;;;;;;4944351;28;90101;-70
2022/06/10 04:46:33;;;;;;;4.53;2.33;;;;;;;;;;4944045;28;92224;-70
2022/06/10 04:49:02;;;;;;;4.07;2.40;;;;;;;;;;4929118;28;88610;-70
2022/06/10 04:51:30;;;;;;;4.53;2.17;;;;;;;;;;4933750;28;88294;-70
2022/06/10 04:53:59;;;;;;;3.03;1.93;;;;;;;;;;4943514;28;89441;-69
2022/06/10 04:56:30;;;;;;;3.00;1.80;;;;;;;;;;4943717;28;91505;-70
2022/06/10 04:58:58;;;;;;;5.73;3.17;;;;;;;;;;4943715;28;88677;-70
2022/06/10 05:01:27;;;;;;;3.37;2.20;;;;;;;;;;4943136;28;88635;-69
2022/06/10 05:03:57;;;;;;;3.47;2.47;;;;;;;;;;4929370;28;89409;-70
2022/06/10 05:06:26;;;;;;;4.67;2.60;;;;;;;;;;4924215;28;88797;-69
2022/06/10 05:08:54;;;;;;;9.73;1.87;;;;;;;;;;4924497;28;90255;-70
2022/06/10 05:11:23;;;;;;;2.30;1.50;;;;;;;;;;4924232;28;88424;-70
2022/06/10 05:13:52;;;;;;;3.87;2.07;;;;;;;;;;4923611;28;89465;-69
2022/06/10 05:16:24;;;;;;;1.97;1.37;;;;;;;;;;4923283;28;89400;-70
2022/06/10 05:18:53;;;;;;;2.93;1.57;;;;;;;;;;4923514;28;89064;-70
2022/06/10 05:21:23;;;;;;;2.87;1.87;;;;;;;;;;4922897;28;89644;-69
2022/06/10 05:23:52;;;;;;;4.93;2.30;;;;;;;;;;4923692;28;89734;-69
2022/06/10 05:26:20;;;;;;;2.90;1.70;;;;;;;;;;4923307;28;89422;-77
2022/06/10 05:28:50;;;;;;;4.37;2.37;;;;;;;;;;4923665;28;90565;-78
2022/06/10 05:31:19;;;;;;;3.17;2.07;;;;;;;;;;4922627;28;88671;-78
2022/06/10 05:36:36;;;;;;;3.63;1.97;;;;;;;;;;4920606;28;90391;-78
2022/06/10 05:39:04;;;;;;;2.33;1.57;;;;;;;;;;4922238;28;90454;-79
2022/06/10 05:44:19;;;;;;;1.87;1.50;;;;;;;;;;4923125;28;89367;-78
2022/06/10 05:46:47;;;;;;;3.40;1.87;;;;;;;;;;4921830;28;88996;-77
2022/06/10 05:49:16;;;;;;;3.00;1.60;;;;;;;;;;4922660;28;89893;-78
2022/06/10 05:51:46;;;;;;;3.07;1.50;;;;;;;;;;4924001;28;88705;-79
2022/06/10 05:54:14;;;;;;;3.93;1.60;;;;;;;;;;4920655;28;89413;-78
2022/06/10 05:56:43;;;;;;;2.93;1.60;;;;;;;;;;4921420;28;89200;-77
2022/06/10 05:59:15;;;;;;;1.80;1.60;;;;;;;;;;4920500;28;88472;-77
2022/06/10 06:01:44;;;;;;;3.57;1.53;;;;;;;;;;4921954;28;88639;-77
2022/06/10 06:04:12;;;;;;;1.80;1.40;;;;;;;;;;4920211;28;89533;-77
2022/06/10 06:06:41;;;;;;;3.50;1.60;;;;;;;;;;4919909;28;88980;-78
2022/06/10 06:09:12;;;;;;;1.27;1.10;;;;;;;;;;4919781;28;89002;-77
2022/06/10 06:11:40;;;;;;;2.13;1.57;;;;;;;;;;4917590;28;88654;-78
2022/06/10 06:14:09;;;;;;;1.20;0.93;;;;;;;;;;4922305;28;90739;-77
2022/06/10 06:16:37;;;;;;;4.33;1.90;;;;;;;;;;4920077;28;89411;-77
2022/06/10 06:19:06;;;;;;;2.27;1.47;;;;;;;;;;4927321;28;88775;-78
2022/06/10 06:21:34;;;;;;;4.57;1.33;;;;;;;;;;4923219;28;88931;-78
2022/06/10 06:24:03;;;;;;;1.20;1.10;;;;;;;;;;4920073;28;90748;-78
2022/06/10 06:26:34;;;;;;;2.27;1.43;;;;;;;;;;4920592;28;90498;-78
2022/06/10 06:29:06;;;;;;;1.63;1.40;;;;;;;;;;4921765;28;88537;-77
2022/06/10 06:31:35;;;;;;;1.87;1.27;;;;;;;;;;4925030;28;89234;-77
2022/06/10 06:34:04;;;;;;;1.93;1.20;;;;;;;;;;4937604;28;90496;-78
2022/06/10 06:36:39;;;;;;;1.73;1.00;;;;;;;;;;4938499;28;92117;-79
2022/06/10 06:39:07;;;;;;;2.27;1.00;;;;;;;;;;4940817;28;90829;-79
2022/06/10 06:41:37;;;;;;;2.67;1.30;;;;;;;;;;4903607;28;88664;-80
2022/06/10 06:44:07;;;;;;;2.37;1.20;;;;;;;;;;4920715;28;89952;-77
2022/06/10 06:46:37;;;;;;;1.83;1.07;;;;;;;;;;4927342;28;88961;-77
2022/06/10 06:49:06;;;;;;;1.47;1.17;;;;;;;;;;4938009;28;88765;-76
2022/06/10 06:51:34;;;;;;;1.43;1.07;;;;;;;;;;4936657;28;88465;-77
2022/06/10 06:54:03;;;;;;;2.97;1.10;;;;;;;;;;4919370;28;89376;-78
2022/06/10 06:56:31;;;;;;;3.07;1.30;;;;;;;;;;4922671;28;89236;-79
2022/06/10 06:59:01;;;;;;;5.33;1.70;;;;;;;;;;4921842;28;91245;-79
2022/06/10 07:01:30;;;;;;;2.87;1.23;;;;;;;;;;4925541;28;88390;-79
2022/06/10 07:03:58;;;;;;;2.10;0.83;;;;;;;;;;4931869;28;90521;-79
2022/06/10 07:06:26;;;;;;;2.77;1.37;;;;;;;;;;4921861;28;89554;-79
2022/06/10 07:08:55;;;;;;;1.30;1.13;;;;;;;;;;4921961;28;89391;-79
2022/06/10 07:11:23;;;;;;;1.97;1.10;;;;;;;;;;4922304;28;88542;-79
2022/06/10 07:13:52;;;;;;;4.97;1.67;;;;;;;;;;4920438;28;89597;-79
2022/06/10 07:16:22;;;;;;;3.00;1.27;;;;;;;;;;4921185;28;89237;-79
2022/06/10 07:18:52;;;;;;;0.93;0.80;;;;;;;;;;4931701;28;88904;-80
2022/06/10 07:21:20;;;;;;;4.23;1.23;;;;;;;;;;4921707;28;88564;-80
2022/06/10 07:23:49;;;;;;;3.83;0.97;;;;;;;;;;4921747;28;91760;-81
2022/06/10 07:26:17;;;;;;;0.90;0.80;;;;;;;;;;4921759;28;88434;-81
2022/06/10 07:28:46;;;;;;;3.97;1.40;;;;;;;;;;4921738;28;91551;-80
2022/06/10 07:31:14;;;;;;;1.57;0.90;;;;;;;;;;4921976;28;88629;-79
2022/06/10 07:33:44;;;;;;;1.63;0.87;;;;;;;;;;4910519;28;90260;-80
2022/06/10 07:36:13;;;;;;;0.87;0.80;;;;;;;;;;4919564;28;89205;-77
2022/06/10 07:38:41;;;;;;;1.60;1.13;;;;;;;;;;4924383;28;89007;-77
2022/06/10 07:43:55;;;;;;;1.17;0.90;;;;;;;;;;4920897;28;89446;-75
2022/06/10 07:46:24;;;;;;;0.80;0.80;;;;;;;;;;4921137;28;90445;-75
2022/06/10 07:48:54;;;;;;;2.40;1.10;;;;;;;;;;4922031;28;88393;-74
2022/06/10 07:51:23;;;;;;;0.90;0.60;;;;;;;;;;4919420;28;88416;-76
2022/06/10 07:53:51;;;;;;;3.33;0.90;;;;;;;;;;4922250;28;90145;-76
2022/06/10 07:56:22;;;;;;;1.40;1.10;;;;;;;;;;4921401;28;89999;-76
2022/06/10 07:58:53;;;;;;;2.33;1.23;;;;;;;;;;4926464;28;88351;-76
2022/06/10 08:01:22;;;;;;;3.57;0.93;;;;;;;;;;4931493;28;88569;-76
2022/06/10 08:03:53;;;;;;;2.33;1.30;;;;;;;;;;4918906;28;89631;-76
2022/06/10 08:06:22;;;;;;;4.20;1.40;;;;;;;;;;4917253;28;88958;-77
2022/06/10 08:08:51;;;;;;;1.50;1.00;;;;;;;;;;4916862;28;90394;-75
2022/06/10 08:11:20;;;;;;;3.97;1.07;;;;;;;;;;4914256;28;89917;-75
2022/06/10 08:13:48;;;;;;;1.90;1.13;;;;;;;;;;4920646;28;90118;-75
2022/06/10 08:16:18;;;;;;;1.47;1.00;;;;;;;;;;4921201;28;92318;-75
2022/06/10 08:18:48;;;;;;;1.03;0.80;;;;;;;;;;4921688;28;90633;-75
2022/06/10 08:24:06;;;;;;;1.27;0.80;;;;;;;;;;4898526;28;92587;-78
2022/06/10 08:26:34;;;;;;;2.50;0.73;;;;;;;;;;4920736;28;89553;-75
2022/06/10 08:29:03;;;;;;;1.23;0.90;;;;;;;;;;4919518;28;88936;-75
2022/06/10 08:31:31;;;;;;;0.73;0.70;;;;;;;;;;4919634;28;88650;-76
2022/06/10 08:34:01;;;;;;;0.50;0.50;;;;;;;;;;4902691;28;92812;-75
2022/06/10 08:36:30;;;;;;;1.37;0.63;;;;;;;;;;4920216;28;89704;-75
2022/06/10 08:38:59;;;;;;;0.60;0.60;;;;;;;;;;4919048;28;90454;-77
2022/06/10 08:41:30;;;;;;;0.57;0.53;;;;;;;;;;4917426;28;88702;-76
2022/06/10 08:44:05;;;;;;;2.20;0.80;;;;;;;;;;4915492;28;89479;-75
2022/06/10 08:46:39;;;;;;;3.20;1.03;;;;;;;;;;4919483;28;89440;-78
2022/06/10 08:49:14;;;;;;;1.83;0.73;;;;;;;;;;4921201;28;88560;-78
2022/06/10 08:51:45;;;;;;;1.43;0.70;;;;;;;;;;4921591;28;88503;-79
2022/06/10 08:54:14;;;;;;;1.83;0.80;;;;;;;;;;4921618;28;93568;-79
2022/06/10 08:56:43;;;;;;;0.60;0.60;;;;;;;;;;4920554;28;92960;-78
2022/06/10 08:59:15;;;;;;;0.93;0.80;;;;;;;;;;4919934;28;88834;-78
2022/06/10 09:01:47;;;;;;;4.73;0.90;;;;;;;;;;4921106;28;88733;-80
2022/06/10 09:04:21;;;;;;;2.37;1.10;;;;;;;;;;4930700;28;90437;-78
2022/06/10 09:06:52;;;;;;;2.23;0.63;;;;;;;;;;4937956;28;89350;-79
2022/06/10 09:09:21;;;;;;;1.57;1.03;;;;;;;;;;4924531;28;89585;-77
2022/06/10 09:11:51;;;;;;;1.27;0.77;;;;;;;;;;4923429;28;88648;-78
2022/06/10 09:14:20;;;;;;;0.50;0.50;;;;;;;;;;4924509;28;90814;-78
2022/06/10 09:16:51;;;;;;;1.00;0.90;;;;;;;;;;4924005;28;89451;-78
2022/06/10 09:19:22;;;;;;;1.43;0.97;;;;;;;;;;4922342;28;88401;-78
2022/06/10 09:21:53;;;;;;;1.07;0.77;;;;;;;;;;4924388;28;88630;-78
2022/06/10 09:24:26;;;;;;;2.30;0.70;;;;;;;;;;4924874;28;92513;-79
2022/06/10 09:26:55;;;;;;;1.57;0.67;;;;;;;;;;4922412;28;91126;-78
2022/06/10 09:29:23;;;;;;;1.80;0.67;;;;;;;;;;4925756;28;88558;-78
2022/06/10 09:31:54;;;;;;;1.13;0.80;;;;;;;;;;4924888;28;88476;-78
2022/06/10 09:34:26;;;;;;;1.77;0.60;;;;;;;;;;4923672;28;89860;-78
2022/06/10 09:36:58;;;;;;;1.20;0.80;;;;;;;;;;4924399;28;90328;-79
2022/06/10 09:42:19;;;;;;;0.73;0.53;;;;;;;;;;4924351;28;88118;-77
2022/06/10 09:44:49;;;;;;;0.60;0.60;;;;;;;;;;4923550;28;91590;-78
2022/06/10 09:47:33;;;;;;;1.80;0.93;;;;;;;;;;4924021;28;89979;-77
2022/06/10 09:50:04;;;;;;;1.83;0.57;;;;;;;;;;4924830;28;88377;-78
2022/06/10 09:52:36;;;;;;;1.60;0.60;;;;;;;;;;4924792;28;89066;-78
2022/06/10 09:55:09;;;;;;;0.40;0.40;;;;;;;;;;4935878;28;89822;-78
2022/06/10 09:57:43;;;;;;;2.43;0.50;;;;;;;;;;4928191;28;88198;-77
2022/06/10 10:00:12;;;;;;;1.43;0.50;;;;;;;;;;4943045;28;88917;-77
2022/06/10 10:02:43;;;;;;;0.97;0.43;;;;;;;;;;4942908;28;88556;-77
2022/06/10 10:05:17;;;;;;;0.60;0.60;;;;;;;;;;4933279;28;89488;-76
2022/06/10 10:07:49;;;;;;;1.03;0.40;;;;;;;;;;4922975;28;89190;-76
2022/06/10 10:10:24;;;;;;;2.13;0.50;;;;;;;;;;4928183;28;88515;-76
2022/06/10 10:13:02;;;;;;;0.77;0.50;;;;;;;;;;4926077;28;88457;-75
2022/06/10 10:15:33;;;;;;;2.20;0.60;;;;;;;;;;4923299;28;88483;-75
2022/06/10 10:18:08;;;;;;;0.97;0.40;;;;;;;;;;4922865;28;90579;-76
2022/06/10 10:20:44;;;;;;;0.60;0.60;;;;;;;;;;4923234;28;88918;-75
2022/06/10 10:23:14;;;;;;;0.73;0.50;;;;;;;;;;4923210;28;89008;-76
2022/06/10 10:25:44;;;;;;;1.67;0.73;;;;;;;;;;4922538;28;90006;-76
2022/06/10 10:28:15;;;;;;;1.27;0.70;;;;;;;;;;4922557;28;89775;-75
2022/06/10 10:30:45;;;;;;;1.10;0.67;;;;;;;;;;4922708;28;88787;-75
2022/06/10 10:33:15;;;;;;;1.60;0.60;;;;;;;;;;4923081;28;88412;-75
2022/06/10 10:35:43;;;;;;;0.93;0.70;;;;;;;;;;4922522;28;89314;-75
2022/06/10 10:38:14;;;;;;;2.43;0.70;;;;;;;;;;4916365;28;91066;-75
2022/06/10 10:40:43;;;;;;;2.93;0.73;;;;;;;;;;4917209;28;88514;-76
2022/06/10 10:43:13;;;;;;;1.83;0.80;;;;;;;;;;4922559;28;88336;-77
2022/06/10 10:45:41;;;;;;;0.93;0.60;;;;;;;;;;4920055;28;91268;-76
2022/06/10 10:48:15;;;;;;;0.73;0.50;;;;;;;;;;4922815;28;91864;-77
2022/06/10 10:50:52;;;;;;;0.93;0.60;;;;;;;;;;4922564;28;91488;-76
2022/06/10 10:53:24;;;;;;;0.60;0.50;;;;;;;;;;4922837;28;88436;-76
2022/06/10 10:55:53;;;;;;;4.57;1.00;;;;;;;;;;4919750;28;93606;-75
2022/06/10 10:58:25;;;;;;;0.67;0.67;;;;;;;;;;4921837;28;89012;-76
2022/06/10 11:00:55;;;;;;;0.60;0.60;;;;;;;;;;4921540;28;90800;-75
2022/06/10 11:03:25;;;;;;;1.00;0.80;;;;;;;;;;4922406;28;88658;-76
2022/06/10 11:05:54;;;;;;;1.53;0.80;;;;;;;;;;4921047;28;89838;-76
2022/06/10 11:08:25;;;;;;;2.60;0.80;;;;;;;;;;4921843;28;88774;-78
2022/06/10 11:10:54;;;;;;;0.97;0.70;;;;;;;;;;4906910;28;88627;-77
2022/06/10 11:13:26;;;;;;;0.60;0.60;;;;;;;;;;4922303;28;88630;-78
2022/06/10 11:15:55;;;;;;;1.07;0.73;;;;;;;;;;4922243;28;89651;-77
2022/06/10 11:18:23;;;;;;;4.47;0.80;;;;;;;;;;4921861;28;89286;-76
2022/06/10 11:20:52;;;;;;;2.20;0.70;;;;;;;;;;4936341;28;88182;-77
2022/06/10 11:23:29;;;;;;;0.80;0.80;;;;;;;;;;4932025;28;88466;-77
2022/06/10 11:26:05;;;;;;;0.70;0.70;;;;;;;;;;4922391;28;90943;-77
2022/06/10 11:28:36;;;;;;;6.57;0.73;;;;;;;;;;4920489;28;89020;-77
2022/06/10 11:31:04;;;;;;;1.83;0.90;;;;;;;;;;4921489;28;88521;-77
2022/06/10 11:33:35;;;;;;;0.73;0.73;;;;;;;;;;4921433;28;88671;-77
2022/06/10 11:36:14;;;;;;;1.77;1.00;;;;;;;;;;4921495;28;90692;-77
2022/06/10 11:38:49;;;;;;;2.93;0.80;;;;;;;;;;4922072;28;89846;-77
2022/06/10 11:41:25;;;;;;;2.83;0.80;;;;;;;;;;4913109;28;89003;-77
2022/06/10 11:43:55;;;;;;;1.03;0.77;;;;;;;;;;4922673;28;88658;-75
2022/06/10 11:46:26;;;;;;;0.60;0.50;;;;;;;;;;4922126;28;89803;-75
2022/06/10 11:48:56;;;;;;;4.60;0.93;;;;;;;;;;4921349;28;92366;-76
2022/06/10 11:51:26;;;;;;;4.77;0.87;;;;;;;;;;4921034;28;88409;-75
2022/06/10 11:53:58;;;;;;;1.27;0.70;;;;;;;;;;4920850;28;88706;-74
2022/06/10 12:02:02;;;;;;;4.80;0.77;;;;;;;;;;4921893;28;88498;-77
2022/06/10 12:04:32;;;;;;;3.33;1.30;;;;;;;;;;4921199;28;88623;-77
2022/06/10 12:07:01;;;;;;;3.27;1.40;;;;;;;;;;4921818;28;91801;-74
2022/06/10 12:09:33;;;;;;;9.13;2.20;;;;;;;;;;4918940;28;88915;-76
2022/06/10 12:12:03;;;;;;;5.47;2.10;;;;;;;;;;4920478;28;88441;-76
2022/06/10 12:14:34;;;;;;;6.70;2.20;;;;;;;;;;4921555;28;88459;-76
2022/06/10 12:17:04;;;;;;;8.27;2.27;;;;;;;;;;4921127;28;93546;-77
2022/06/10 12:19:33;;;;;;;3.93;2.07;;;;;;;;;;4921531;28;91293;-76
2022/06/10 12:22:02;;;;;;;6.13;2.47;;;;;;;;;;4922748;28;88555;-77
2022/06/10 12:24:38;;;;;;;8.80;2.47;;;;;;;;;;4922672;28;88365;-76
2022/06/10 12:27:07;;;;;;;6.13;2.83;;;;;;;;;;4922574;28;92133;-77
2022/06/10 12:29:38;;;;;;;5.10;2.60;;;;;;;;;;4920894;28;89064;-76
2022/06/10 12:32:08;;;;;;;6.60;2.57;;;;;;;;;;4921268;28;89856;-76
2022/06/10 12:34:40;;;;;;;4.10;1.87;;;;;;;;;;4921074;28;88557;-76
2022/06/10 12:37:15;;;;;;;4.23;1.60;;;;;;;;;;4921849;28;92446;-76
2022/06/10 12:39:47;;;;;;;9.57;3.03;;;;;;;;;;4921563;28;89239;-76
2022/06/10 12:42:15;;;;;;;6.67;1.90;;;;;;;;;;4911325;28;88434;-76
2022/06/10 12:44:45;;;;;;;5.50;2.00;;;;;;;;;;4925128;28;88460;-76
2022/06/10 12:47:14;;;;;;;6.03;2.43;;;;;;;;;;4924587;28;92390;-76
2022/06/10 12:49:43;;;;;;;10.67;2.67;;;;;;;;;;4924297;28;90000;-77
2022/06/10 12:52:17;;;;;;;5.43;1.70;;;;;;;;;;4923369;28;89799;-76
2022/06/10 12:54:49;;;;;;;5.10;2.07;;;;;;;;;;4924970;28;88424;-77
2022/06/10 12:57:25;;;;;;;3.60;1.60;;;;;;;;;;4924193;28;89914;-77
2022/06/10 13:00:07;;;;;;;5.60;2.10;;;;;;;;;;4924785;28;88649;-76
2022/06/10 13:02:38;;;;;;;4.43;2.03;;;;;;;;;;4924225;28;88466;-76
2022/06/10 13:05:22;;;;;;;6.23;2.63;;;;;;;;;;4936755;28;89054;-76
2022/06/10 13:07:51;;;;;;;4.10;2.00;;;;;;;;;;4930210;28;88959;-76
2022/06/10 13:10:46;;;;;;;4.13;1.57;;;;;;;;;;4943483;28;88735;-76
2022/06/10 13:13:17;;;;;;;3.97;1.80;;;;;;;;;;4943372;28;88367;-77
2022/06/10 13:15:51;;;;;;;4.40;2.03;;;;;;;;;;4944102;28;88576;-77
2022/06/10 13:18:37;;;;;;;8.33;2.20;;;;;;;;;;4943874;28;88401;-77
2022/06/10 13:21:07;;;;;;;3.23;1.60;;;;;;;;;;4940716;28;90124;-76
2022/06/10 13:23:38;;;;;;;3.53;1.73;;;;;;;;;;4944803;28;89812;-76
2022/06/10 13:26:14;;;;;;;4.53;1.63;;;;;;;;;;4935008;28;90618;-76
2022/06/10 13:28:43;;;;;;;3.47;1.33;;;;;;;;;;4923505;28;88577;-76
2022/06/10 13:31:16;;;;;;;4.57;1.50;;;;;;;;;;4923411;28;89092;-78
2022/06/10 13:33:58;;;;;;;3.73;1.50;;;;;;;;;;4924026;28;88425;-76
2022/06/10 13:36:26;;;;;;;2.87;1.50;;;;;;;;;;4941279;28;88728;-77
2022/06/10 13:38:55;;;;;;;3.13;1.23;;;;;;;;;;4943222;28;89631;-77
2022/06/10 13:44:17;;;;;;;3.73;1.70;;;;;;;;;;4923833;28;88395;-77
2022/06/10 13:46:47;;;;;;;2.43;1.60;;;;;;;;;;4929560;28;88575;-76
2022/06/10 13:49:17;;;;;;;3.10;1.37;;;;;;;;;;4939945;28;89500;-76
2022/06/10 13:51:49;;;;;;;3.37;1.30;;;;;;;;;;4922835;28;90078;-76
2022/06/10 13:54:19;;;;;;;1.50;1.33;;;;;;;;;;4923927;28;91241;-77
2022/06/10 13:56:49;;;;;;;1.97;1.47;;;;;;;;;;4923247;28;89010;-76
2022/06/10 13:59:22;;;;;;;2.07;1.50;;;;;;;;;;4923168;28;91619;-76
2022/06/10 14:01:52;;;;;;;3.07;1.50;;;;;;;;;;4923693;28;88862;-77
2022/06/10 14:04:22;;;;;;;4.33;1.40;;;;;;;;;;4923325;28;88388;-77
2022/06/10 14:06:51;;;;;;;2.63;1.27;;;;;;;;;;4923510;28;88602;-76
2022/06/10 14:09:20;;;;;;;1.53;1.27;;;;;;;;;;4923721;28;92267;-76
2022/06/10 14:11:59;;;;;;;1.83;1.13;;;;;;;;;;4922764;28;91441;-77
2022/06/10 14:14:28;;;;;;;2.03;1.00;;;;;;;;;;4942842;28;92612;-77
2022/06/10 14:17:00;;;;;;;3.60;1.33;;;;;;;;;;4943311;28;88643;-77
2022/06/10 14:19:29;;;;;;;6.50;1.37;;;;;;;;;;4925186;28;89588;-77
2022/06/10 14:21:57;;;;;;;2.60;1.10;;;;;;;;;;4922365;28;89960;-76
2022/06/10 14:24:29;;;;;;;6.80;1.40;;;;;;;;;;4905892;28;88947;-77
2022/06/10 14:27:03;;;;;;;1.87;1.43;;;;;;;;;;4903242;28;88348;-76
2022/06/10 14:29:42;;;;;;;3.33;1.27;;;;;;;;;;4903686;28;88565;-77
2022/06/10 14:32:17;;;;;;;3.37;1.37;;;;;;;;;;4914353;28;90381;-76
2022/06/10 14:34:45;;;;;;;3.13;1.60;;;;;;;;;;4920739;28;88928;-76
2022/06/10 14:37:23;;;;;;;1.97;1.50;;;;;;;;;;4915918;28;88487;-77
2022/06/10 14:40:02;;;;;;;3.60;1.43;;;;;;;;;;4916644;28;90585;-77
2022/06/10 14:42:33;;;;;;;2.97;1.30;;;;;;;;;;4916648;28;89278;-77
2022/06/10 14:45:02;;;;;;;4.20;2.33;;;;;;;;;;4913183;28;88529;-76
2022/06/10 14:47:31;;;;;;;2.77;1.40;;;;;;;;;;4921750;28;88663;-76
2022/06/10 14:50:00;;;;;;;3.40;2.00;;;;;;;;;;4920525;28;89868;-76
2022/06/10 14:52:31;;;;;;;3.93;2.17;;;;;;;;;;4921947;28;90055;-76
2022/06/10 14:54:59;;;;;;;4.07;2.07;;;;;;;;;;4922285;28;88535;-77
2022/06/10 14:57:28;;;;;;;4.43;2.00;;;;;;;;;;4925766;28;88893;-77
2022/06/10 14:59:58;;;;;;;4.53;1.80;;;;;;;;;;4932977;28;89374;-76
2022/06/10 15:02:27;;;;;;;4.97;1.80;;;;;;;;;;4940207;28;88439;-75
2022/06/10 15:07:41;;;;;;;4.97;1.93;;;;;;;;;;4926412;28;89236;-76
2022/06/10 15:10:12;;;;;;;3.67;1.53;;;;;;;;;;4924583;28;89096;-77
2022/06/10 15:12:40;;;;;;;3.03;1.80;;;;;;;;;;4922442;28;90103;-76
2022/06/10 15:15:13;;;;;;;2.87;1.83;;;;;;;;;;4922185;28;88321;-77
2022/06/10 15:17:41;;;;;;;2.73;2.00;;;;;;;;;;4923376;28;88343;-77
2022/06/10 15:20:11;;;;;;;3.17;2.10;;;;;;;;;;4925716;28;89313;-77
2022/06/10 15:22:47;;;;;;;4.80;2.70;;;;;;;;;;4922961;28;91866;-76
2022/06/10 15:25:17;;;;;;;6.70;2.37;;;;;;;;;;4922498;28;90428;-76
2022/06/10 15:27:45;;;;;;;5.33;2.23;;;;;;;;;;4922694;28;88644;-76
2022/06/10 15:30:17;;;;;;;2.90;2.47;;;;;;;;;;4922455;28;92616;-76